Pontycymer, United Kingdom
Current Conditions -  °F | °C
As of 11:50 AM on Monday 22 Dec 2014 (Local Time) from EGDX Reporting Station
Broken Clouds Broken Clouds  
Wind Chill: 54°   Ceiling: 1300
Heat Index: 54°   Visibility: 6mi
Dew Point: 48°   Wind: 26mph
Humidity: 82%   Direction: 250°WSW
Pressure: 30.09"   Gusts: NA
Location:  51.61°N, 3.58°W
Report Text: EGDX 221150Z 25023KT 9999 BKN013 12/09 Q1019 GRN
Loading
Personal Weather Stations






























Interactive Weather Map New forecast layout! Learn more

10-Day Weather Forecast

Advertisements
Track Severe Weather on mobile